Meteorológiai információk azoknak akik tudják olvasni.

METAR = LHBP 210530Z 00000KT 0100 R13R/0250N R13L/0225N FG VV001 04/04 Q1015 BECMG 0500

9 órás TAF = TAF TAF LHBP 242330Z 2423/2424 30008KT CAVOK BECMG 2506/2509 24010KT OVC030 TEMPO 2509/2515 24015G25KT 8000 -RA BKN013 OVC025 BECMG 2515/2518 30008KT CAVOK

24 órás TAF = TAF TAF LHBP 210515Z 2106/2206 VRB03KT 0100 FG VV001 BECMG 2106/2109 26006KT 9999 NSW SCT040 TEMPO 2112/2118 24010G20KT 4000 SHRA TSRA SCT035CB BECMG 2118/2120 18005KT CAVOK TEMPO 2200/2206 1500 BCFG BKN005

ÁLLOMÁS.................... LHBP
ÉSZLELÉS................... Wed Apr 21, 07:30 CEST
MOST....................... Wed Apr 21, 07:32 CEST
IDŐ........................ 2 perccel ezelőtt
SZÉL....................... szélcsend
LÁTÁSTÁVOLSÁG.............. 0.1 mérföld
IDŐJÁRÁS................... köd
FELHŐZET................... függőleges látás to 100 ft
HŐMÉRSÉKLET................ 39°F (4°C)
HARMATPONT................. 39°F (4°C)
PÁRATARTALOM............... 100%
LÉGNYOMÁS.................. 1015 hPa (29.97 in Hg)

További információ LHBP állomásról

Meteor információ kérése:        állomásról.    

 

www.tothgeza.hu

 

English version
Copyright © 2003-2021 Tóth Géza Minden jog fenntartva.